sensor_id;sensor_type;location;lat;lon;timestamp;P1;durP1;ratioP1;P2;durP2;ratioP2
55776;SDS011;54079;44.540;18.784;2023-03-14T00:01:56;4.50;;;2.05;;
55776;SDS011;54079;44.540;18.784;2023-03-14T00:04:23;2.67;;;1.50;;
55776;SDS011;54079;44.540;18.784;2023-03-14T00:06:48;3.00;;;1.88;;
55776;SDS011;54079;44.540;18.784;2023-03-14T00:09:15;5.20;;;2.08;;
55776;SDS011;54079;44.540;18.784;2023-03-14T00:11:42;3.53;;;1.95;;
55776;SDS011;54079;44.540;18.784;2023-03-14T00:14:08;2.83;;;1.98;;
55776;SDS011;54079;44.540;18.784;2023-03-14T00:16:34;3.17;;;1.80;;
55776;SDS011;54079;44.540;18.784;2023-03-14T00:19:00;2.63;;;1.50;;
55776;SDS011;54079;44.540;18.784;2023-03-14T00:21:27;2.97;;;1.40;;
55776;SDS011;54079;44.540;18.784;2023-03-14T00:23:53;4.55;;;1.70;;
55776;SDS011;54079;44.540;18.784;2023-03-14T00:26:19;2.40;;;1.23;;
55776;SDS011;54079;44.540;18.784;2023-03-14T00:28:46;1.73;;;1.23;;
55776;SDS011;54079;44.540;18.784;2023-03-14T00:31:16;2.97;;;1.98;;
55776;SDS011;54079;44.540;18.784;2023-03-14T00:33:42;3.35;;;1.80;;
55776;SDS011;54079;44.540;18.784;2023-03-14T00:36:10;2.85;;;1.55;;
55776;SDS011;54079;44.540;18.784;2023-03-14T00:38:41;2.47;;;1.60;;
55776;SDS011;54079;44.540;18.784;2023-03-14T00:41:10;4.07;;;2.47;;
55776;SDS011;54079;44.540;18.784;2023-03-14T00:43:37;3.20;;;1.63;;
55776;SDS011;54079;44.540;18.784;2023-03-14T00:46:04;3.25;;;2.03;;
55776;SDS011;54079;44.540;18.784;2023-03-14T00:48:30;4.13;;;2.13;;
55776;SDS011;54079;44.540;18.784;2023-03-14T00:50:57;2.22;;;1.58;;
55776;SDS011;54079;44.540;18.784;2023-03-14T00:53:23;1.45;;;1.00;;
55776;SDS011;54079;44.540;18.784;2023-03-14T00:55:49;2.53;;;1.20;;
55776;SDS011;54079;44.540;18.784;2023-03-14T00:58:16;2.92;;;1.35;;
55776;SDS011;54079;44.540;18.784;2023-03-14T01:00:43;3.83;;;1.58;;
55776;SDS011;54079;44.540;18.784;2023-03-14T01:03:10;1.50;;;1.05;;
55776;SDS011;54079;44.540;18.784;2023-03-14T01:05:38;1.98;;;1.02;;
55776;SDS011;54079;44.540;18.784;2023-03-14T01:08:06;2.08;;;1.48;;
55776;SDS011;54079;44.540;18.784;2023-03-14T01:10:33;2.63;;;1.45;;
55776;SDS011;54079;44.540;18.784;2023-03-14T01:12:59;2.92;;;1.23;;
55776;SDS011;54079;44.540;18.784;2023-03-14T01:15:25;1.85;;;1.10;;
55776;SDS011;54079;44.540;18.784;2023-03-14T01:17:51;2.95;;;1.45;;
55776;SDS011;54079;44.540;18.784;2023-03-14T01:20:17;2.28;;;1.13;;
55776;SDS011;54079;44.540;18.784;2023-03-14T01:22:43;1.88;;;1.20;;
55776;SDS011;54079;44.540;18.784;2023-03-14T01:25:10;2.60;;;1.50;;
55776;SDS011;54079;44.540;18.784;2023-03-14T01:27:39;1.98;;;1.10;;
55776;SDS011;54079;44.540;18.784;2023-03-14T01:30:06;2.40;;;1.27;;
55776;SDS011;54079;44.540;18.784;2023-03-14T01:32:33;3.10;;;1.23;;
55776;SDS011;54079;44.540;18.784;2023-03-14T01:34:59;2.10;;;1.02;;
55776;SDS011;54079;44.540;18.784;2023-03-14T01:37:25;1.63;;;0.82;;
55776;SDS011;54079;44.540;18.784;2023-03-14T01:39:51;1.73;;;1.02;;
55776;SDS011;54079;44.540;18.784;2023-03-14T01:42:17;1.73;;;0.70;;
55776;SDS011;54079;44.540;18.784;2023-03-14T01:44:53;1.90;;;1.05;;
55776;SDS011;54079;44.540;18.784;2023-03-14T01:47:21;2.03;;;0.77;;
55776;SDS011;54079;44.540;18.784;2023-03-14T01:49:48;1.77;;;1.00;;
55776;SDS011;54079;44.540;18.784;2023-03-14T01:52:39;2.35;;;1.10;;
55776;SDS011;54079;44.540;18.784;2023-03-14T01:55:12;3.75;;;1.02;;
55776;SDS011;54079;44.540;18.784;2023-03-14T01:57:45;2.13;;;1.20;;
55776;SDS011;54079;44.540;18.784;2023-03-14T02:00:18;1.75;;;1.20;;
55776;SDS011;54079;44.540;18.784;2023-03-14T02:02:47;1.27;;;0.63;;
55776;SDS011;54079;44.540;18.784;2023-03-14T02:05:17;2.08;;;0.73;;
55776;SDS011;54079;44.540;18.784;2023-03-14T02:07:53;2.65;;;0.95;;
55776;SDS011;54079;44.540;18.784;2023-03-14T02:10:22;1.13;;;0.70;;
55776;SDS011;54079;44.540;18.784;2023-03-14T02:12:52;1.85;;;0.50;;
55776;SDS011;54079;44.540;18.784;2023-03-14T02:15:20;1.80;;;0.70;;
55776;SDS011;54079;44.540;18.784;2023-03-14T02:17:46;2.05;;;0.75;;
55776;SDS011;54079;44.540;18.784;2023-03-14T02:20:25;1.10;;;0.80;;
55776;SDS011;54079;44.540;18.784;2023-03-14T02:23:17;1.83;;;0.93;;
55776;SDS011;54079;44.540;18.784;2023-03-14T02:26:00;1.05;;;0.50;;
55776;SDS011;54079;44.540;18.784;2023-03-14T02:28:30;1.30;;;0.70;;
55776;SDS011;54079;44.540;18.784;2023-03-14T02:30:56;2.47;;;0.82;;
55776;SDS011;54079;44.540;18.784;2023-03-14T02:33:22;1.17;;;0.60;;
55776;SDS011;54079;44.540;18.784;2023-03-14T02:35:58;0.85;;;0.38;;
55776;SDS011;54079;44.540;18.784;2023-03-14T02:41:23;0.75;;;0.28;;
55776;SDS011;54079;44.540;18.784;2023-03-14T02:43:49;3.00;;;0.88;;
55776;SDS011;54079;44.540;18.784;2023-03-14T02:46:19;1.70;;;0.57;;
55776;SDS011;54079;44.540;18.784;2023-03-14T02:48:48;1.33;;;0.50;;
55776;SDS011;54079;44.540;18.784;2023-03-14T02:51:19;2.45;;;0.90;;
55776;SDS011;54079;44.540;18.784;2023-03-14T02:53:46;0.65;;;0.30;;
55776;SDS011;54079;44.540;18.784;2023-03-14T02:56:12;0.88;;;0.40;;
55776;SDS011;54079;44.540;18.784;2023-03-14T02:58:38;0.85;;;0.52;;
55776;SDS011;54079;44.540;18.784;2023-03-14T03:01:05;1.58;;;0.80;;
55776;SDS011;54079;44.540;18.784;2023-03-14T03:03:31;0.93;;;0.70;;
55776;SDS011;54079;44.540;18.784;2023-03-14T03:05:57;1.20;;;0.80;;
55776;SDS011;54079;44.540;18.784;2023-03-14T03:08:24;1.95;;;1.08;;
55776;SDS011;54079;44.540;18.784;2023-03-14T03:10:52;1.33;;;0.57;;
55776;SDS011;54079;44.540;18.784;2023-03-14T03:13:18;1.58;;;0.70;;
55776;SDS011;54079;44.540;18.784;2023-03-14T03:15:44;0.77;;;0.55;;
55776;SDS011;54079;44.540;18.784;2023-03-14T03:18:11;1.52;;;0.65;;
55776;SDS011;54079;44.540;18.784;2023-03-14T03:20:37;1.00;;;0.50;;
55776;SDS011;54079;44.540;18.784;2023-03-14T03:23:03;1.13;;;0.40;;
55776;SDS011;54079;44.540;18.784;2023-03-14T03:25:29;1.20;;;0.50;;
55776;SDS011;54079;44.540;18.784;2023-03-14T03:27:55;1.20;;;0.73;;
55776;SDS011;54079;44.540;18.784;2023-03-14T03:30:22;2.58;;;0.60;;
55776;SDS011;54079;44.540;18.784;2023-03-14T03:32:48;0.65;;;0.35;;
55776;SDS011;54079;44.540;18.784;2023-03-14T03:35:14;1.55;;;0.68;;
55776;SDS011;54079;44.540;18.784;2023-03-14T03:37:40;1.40;;;0.57;;
55776;SDS011;54079;44.540;18.784;2023-03-14T03:40:06;1.13;;;0.60;;
55776;SDS011;54079;44.540;18.784;2023-03-14T03:42:34;1.75;;;0.52;;
55776;SDS011;54079;44.540;18.784;2023-03-14T03:45:00;1.05;;;0.50;;
55776;SDS011;54079;44.540;18.784;2023-03-14T03:47:27;1.10;;;0.60;;
55776;SDS011;54079;44.540;18.784;2023-03-14T03:49:53;1.55;;;0.50;;
55776;SDS011;54079;44.540;18.784;2023-03-14T03:52:19;0.93;;;0.50;;
55776;SDS011;54079;44.540;18.784;2023-03-14T03:54:45;0.88;;;0.57;;
55776;SDS011;54079;44.540;18.784;2023-03-14T03:57:11;1.00;;;0.40;;
55776;SDS011;54079;44.540;18.784;2023-03-14T03:59:37;1.58;;;0.52;;
55776;SDS011;54079;44.540;18.784;2023-03-14T04:02:05;0.85;;;0.55;;
55776;SDS011;54079;44.540;18.784;2023-03-14T04:04:31;1.20;;;0.50;;
55776;SDS011;54079;44.540;18.784;2023-03-14T04:06:57;0.38;;;0.30;;
55776;SDS011;54079;44.540;18.784;2023-03-14T04:09:23;1.23;;;0.40;;
55776;SDS011;54079;44.540;18.784;2023-03-14T04:11:48;1.42;;;0.50;;
55776;SDS011;54079;44.540;18.784;2023-03-14T04:14:14;1.10;;;0.38;;
55776;SDS011;54079;44.540;18.784;2023-03-14T04:16:40;1.27;;;0.55;;
55776;SDS011;54079;44.540;18.784;2023-03-14T04:19:06;1.10;;;0.55;;
55776;SDS011;54079;44.540;18.784;2023-03-14T04:21:32;1.48;;;0.63;;
55776;SDS011;54079;44.540;18.784;2023-03-14T04:23:58;2.03;;;0.60;;
55776;SDS011;54079;44.540;18.784;2023-03-14T04:26:24;1.85;;;0.70;;
55776;SDS011;54079;44.540;18.784;2023-03-14T04:28:50;1.73;;;0.65;;
55776;SDS011;54079;44.540;18.784;2023-03-14T04:31:20;1.70;;;0.52;;
55776;SDS011;54079;44.540;18.784;2023-03-14T04:33:46;0.90;;;0.40;;
55776;SDS011;54079;44.540;18.784;2023-03-14T04:36:12;1.38;;;0.40;;
55776;SDS011;54079;44.540;18.784;2023-03-14T04:38:39;0.32;;;0.32;;
55776;SDS011;54079;44.540;18.784;2023-03-14T04:41:05;0.60;;;0.30;;
55776;SDS011;54079;44.540;18.784;2023-03-14T04:43:31;1.58;;;0.50;;
55776;SDS011;54079;44.540;18.784;2023-03-14T04:45:58;1.15;;;0.57;;
55776;SDS011;54079;44.540;18.784;2023-03-14T04:48:24;2.28;;;0.90;;
55776;SDS011;54079;44.540;18.784;2023-03-14T04:50:50;0.47;;;0.32;;
55776;SDS011;54079;44.540;18.784;2023-03-14T04:53:17;1.50;;;0.70;;
55776;SDS011;54079;44.540;18.784;2023-03-14T04:55:53;0.47;;;0.32;;
55776;SDS011;54079;44.540;18.784;2023-03-14T04:58:20;1.05;;;0.50;;
55776;SDS011;54079;44.540;18.784;2023-03-14T05:00:47;1.48;;;0.57;;
55776;SDS011;54079;44.540;18.784;2023-03-14T05:03:16;0.90;;;0.60;;
55776;SDS011;54079;44.540;18.784;2023-03-14T05:05:43;2.63;;;0.63;;
55776;SDS011;54079;44.540;18.784;2023-03-14T05:08:09;1.23;;;0.45;;
55776;SDS011;54079;44.540;18.784;2023-03-14T05:10:36;1.17;;;0.45;;
55776;SDS011;54079;44.540;18.784;2023-03-14T05:13:02;1.38;;;0.43;;
55776;SDS011;54079;44.540;18.784;2023-03-14T05:15:28;0.82;;;0.60;;
55776;SDS011;54079;44.540;18.784;2023-03-14T05:17:54;0.30;;;0.20;;
55776;SDS011;54079;44.540;18.784;2023-03-14T05:20:21;2.88;;;0.90;;
55776;SDS011;54079;44.540;18.784;2023-03-14T05:22:47;1.02;;;0.60;;
55776;SDS011;54079;44.540;18.784;2023-03-14T05:25:13;1.88;;;0.70;;
55776;SDS011;54079;44.540;18.784;2023-03-14T05:27:39;2.13;;;0.80;;
55776;SDS011;54079;44.540;18.784;2023-03-14T05:30:05;0.80;;;0.45;;
55776;SDS011;54079;44.540;18.784;2023-03-14T05:32:31;1.35;;;0.60;;
55776;SDS011;54079;44.540;18.784;2023-03-14T05:34:57;1.17;;;0.70;;
55776;SDS011;54079;44.540;18.784;2023-03-14T05:37:27;1.80;;;0.60;;
55776;SDS011;54079;44.540;18.784;2023-03-14T05:39:53;1.08;;;0.45;;
55776;SDS011;54079;44.540;18.784;2023-03-14T05:42:19;1.95;;;0.75;;
55776;SDS011;54079;44.540;18.784;2023-03-14T05:44:45;0.80;;;0.30;;
55776;SDS011;54079;44.540;18.784;2023-03-14T05:47:11;1.05;;;0.50;;
55776;SDS011;54079;44.540;18.784;2023-03-14T05:49:37;0.80;;;0.50;;
55776;SDS011;54079;44.540;18.784;2023-03-14T05:52:03;1.30;;;0.28;;
55776;SDS011;54079;44.540;18.784;2023-03-14T05:54:29;0.52;;;0.22;;
55776;SDS011;54079;44.540;18.784;2023-03-14T05:56:55;0.80;;;0.60;;
55776;SDS011;54079;44.540;18.784;2023-03-14T05:59:21;2.13;;;0.50;;
55776;SDS011;54079;44.540;18.784;2023-03-14T06:01:47;0.80;;;0.40;;
55776;SDS011;54079;44.540;18.784;2023-03-14T06:04:13;0.90;;;0.40;;
55776;SDS011;54079;44.540;18.784;2023-03-14T06:06:39;0.70;;;0.22;;
55776;SDS011;54079;44.540;18.784;2023-03-14T06:09:05;1.02;;;0.43;;
55776;SDS011;54079;44.540;18.784;2023-03-14T06:11:31;1.92;;;0.63;;
55776;SDS011;54079;44.540;18.784;2023-03-14T06:13:57;1.17;;;0.45;;
55776;SDS011;54079;44.540;18.784;2023-03-14T06:16:23;1.35;;;0.52;;
55776;SDS011;54079;44.540;18.784;2023-03-14T06:18:49;0.73;;;0.38;;
55776;SDS011;54079;44.540;18.784;2023-03-14T06:21:15;0.70;;;0.50;;
55776;SDS011;54079;44.540;18.784;2023-03-14T06:23:41;0.43;;;0.32;;
55776;SDS011;54079;44.540;18.784;2023-03-14T06:26:07;1.40;;;0.80;;
55776;SDS011;54079;44.540;18.784;2023-03-14T06:28:33;1.17;;;0.90;;
55776;SDS011;54079;44.540;18.784;2023-03-14T06:30:59;0.90;;;0.50;;
55776;SDS011;54079;44.540;18.784;2023-03-14T06:33:25;1.63;;;0.70;;
55776;SDS011;54079;44.540;18.784;2023-03-14T06:35:51;1.40;;;0.60;;
55776;SDS011;54079;44.540;18.784;2023-03-14T06:38:18;2.88;;;1.55;;
55776;SDS011;54079;44.540;18.784;2023-03-14T06:40:44;2.13;;;0.98;;
55776;SDS011;54079;44.540;18.784;2023-03-14T06:43:10;2.90;;;1.95;;
55776;SDS011;54079;44.540;18.784;2023-03-14T06:45:36;2.95;;;2.13;;
55776;SDS011;54079;44.540;18.784;2023-03-14T06:48:02;3.05;;;2.22;;
55776;SDS011;54079;44.540;18.784;2023-03-14T06:50:28;3.97;;;2.10;;
55776;SDS011;54079;44.540;18.784;2023-03-14T06:52:54;2.17;;;1.50;;
55776;SDS011;54079;44.540;18.784;2023-03-14T06:55:20;2.63;;;1.85;;
55776;SDS011;54079;44.540;18.784;2023-03-14T06:57:46;2.83;;;1.65;;
55776;SDS011;54079;44.540;18.784;2023-03-14T07:00:12;4.90;;;2.97;;
55776;SDS011;54079;44.540;18.784;2023-03-14T07:02:39;1.50;;;1.13;;
55776;SDS011;54079;44.540;18.784;2023-03-14T07:05:05;4.38;;;2.50;;
55776;SDS011;54079;44.540;18.784;2023-03-14T07:07:31;4.60;;;3.42;;
55776;SDS011;54079;44.540;18.784;2023-03-14T07:09:57;4.78;;;2.60;;
55776;SDS011;54079;44.540;18.784;2023-03-14T07:12:23;4.53;;;3.10;;
55776;SDS011;54079;44.540;18.784;2023-03-14T07:14:49;6.47;;;4.57;;
55776;SDS011;54079;44.540;18.784;2023-03-14T07:17:15;3.67;;;2.65;;
55776;SDS011;54079;44.540;18.784;2023-03-14T07:19:41;2.90;;;1.30;;
55776;SDS011;54079;44.540;18.784;2023-03-14T07:22:07;5.68;;;4.28;;
55776;SDS011;54079;44.540;18.784;2023-03-14T07:24:33;5.65;;;2.97;;
55776;SDS011;54079;44.540;18.784;2023-03-14T07:26:59;4.78;;;3.92;;
55776;SDS011;54079;44.540;18.784;2023-03-14T07:29:24;10.32;;;7.82;;
55776;SDS011;54079;44.540;18.784;2023-03-14T07:31:50;7.65;;;4.82;;
55776;SDS011;54079;44.540;18.784;2023-03-14T07:34:16;8.15;;;5.35;;
55776;SDS011;54079;44.540;18.784;2023-03-14T07:36:42;10.85;;;7.65;;
55776;SDS011;54079;44.540;18.784;2023-03-14T07:39:08;3.65;;;2.40;;
55776;SDS011;54079;44.540;18.784;2023-03-14T07:41:34;7.20;;;5.18;;
55776;SDS011;54079;44.540;18.784;2023-03-14T07:44:00;6.00;;;4.55;;
55776;SDS011;54079;44.540;18.784;2023-03-14T07:46:26;9.52;;;6.03;;
55776;SDS011;54079;44.540;18.784;2023-03-14T07:48:52;7.70;;;5.80;;
55776;SDS011;54079;44.540;18.784;2023-03-14T07:51:18;9.05;;;5.22;;
55776;SDS011;54079;44.540;18.784;2023-03-14T07:53:44;4.72;;;3.33;;
55776;SDS011;54079;44.540;18.784;2023-03-14T07:56:11;11.57;;;8.63;;
55776;SDS011;54079;44.540;18.784;2023-03-14T07:58:37;8.80;;;5.63;;
55776;SDS011;54079;44.540;18.784;2023-03-14T08:01:03;7.25;;;5.97;;
55776;SDS011;54079;44.540;18.784;2023-03-14T08:03:28;4.78;;;3.30;;
55776;SDS011;54079;44.540;18.784;2023-03-14T08:05:54;4.53;;;3.53;;
55776;SDS011;54079;44.540;18.784;2023-03-14T08:08:20;14.43;;;9.35;;
55776;SDS011;54079;44.540;18.784;2023-03-14T08:10:46;4.35;;;3.17;;
55776;SDS011;54079;44.540;18.784;2023-03-14T08:13:12;2.90;;;2.63;;
55776;SDS011;54079;44.540;18.784;2023-03-14T08:15:39;5.40;;;4.40;;
55776;SDS011;54079;44.540;18.784;2023-03-14T08:18:05;7.63;;;5.85;;
55776;SDS011;54079;44.540;18.784;2023-03-14T08:20:31;8.75;;;7.35;;
55776;SDS011;54079;44.540;18.784;2023-03-14T08:22:57;10.93;;;8.68;;
55776;SDS011;54079;44.540;18.784;2023-03-14T08:25:25;7.95;;;6.03;;
55776;SDS011;54079;44.540;18.784;2023-03-14T08:27:52;4.95;;;4.45;;
55776;SDS011;54079;44.540;18.784;2023-03-14T08:30:18;13.07;;;10.95;;
55776;SDS011;54079;44.540;18.784;2023-03-14T08:32:45;3.47;;;2.65;;
55776;SDS011;54079;44.540;18.784;2023-03-14T08:35:11;7.55;;;5.50;;
55776;SDS011;54079;44.540;18.784;2023-03-14T08:37:38;10.18;;;9.10;;
55776;SDS011;54079;44.540;18.784;2023-03-14T08:40:04;10.13;;;8.57;;
55776;SDS011;54079;44.540;18.784;2023-03-14T08:42:32;3.78;;;3.42;;
55776;SDS011;54079;44.540;18.784;2023-03-14T08:44:58;13.38;;;10.48;;
55776;SDS011;54079;44.540;18.784;2023-03-14T08:47:24;12.65;;;10.90;;
55776;SDS011;54079;44.540;18.784;2023-03-14T08:49:51;3.85;;;3.42;;
55776;SDS011;54079;44.540;18.784;2023-03-14T08:52:17;12.25;;;8.50;;
55776;SDS011;54079;44.540;18.784;2023-03-14T08:54:43;9.57;;;8.48;;
55776;SDS011;54079;44.540;18.784;2023-03-14T08:57:09;21.45;;;19.20;;
55776;SDS011;54079;44.540;18.784;2023-03-14T08:59:35;7.78;;;6.55;;
55776;SDS011;54079;44.540;18.784;2023-03-14T09:02:02;18.05;;;15.32;;
55776;SDS011;54079;44.540;18.784;2023-03-14T09:04:31;6.15;;;5.53;;
55776;SDS011;54079;44.540;18.784;2023-03-14T09:06:58;20.63;;;18.40;;
55776;SDS011;54079;44.540;18.784;2023-03-14T09:09:25;13.88;;;12.40;;
55776;SDS011;54079;44.540;18.784;2023-03-14T09:11:53;13.80;;;12.23;;
55776;SDS011;54079;44.540;18.784;2023-03-14T09:14:19;14.73;;;12.35;;
55776;SDS011;54079;44.540;18.784;2023-03-14T09:16:45;5.32;;;4.45;;
55776;SDS011;54079;44.540;18.784;2023-03-14T09:19:11;16.50;;;14.77;;
55776;SDS011;54079;44.540;18.784;2023-03-14T09:21:37;17.42;;;14.10;;
55776;SDS011;54079;44.540;18.784;2023-03-14T09:24:04;8.15;;;5.65;;
55776;SDS011;54079;44.540;18.784;2023-03-14T09:26:30;11.02;;;9.48;;
55776;SDS011;54079;44.540;18.784;2023-03-14T09:28:56;11.55;;;9.48;;
55776;SDS011;54079;44.540;18.784;2023-03-14T09:31:22;8.40;;;7.50;;
55776;SDS011;54079;44.540;18.784;2023-03-14T09:33:48;10.65;;;6.10;;
55776;SDS011;54079;44.540;18.784;2023-03-14T09:36:14;10.65;;;9.25;;
55776;SDS011;54079;44.540;18.784;2023-03-14T09:38:40;9.88;;;7.88;;
55776;SDS011;54079;44.540;18.784;2023-03-14T09:41:12;12.25;;;10.25;;
55776;SDS011;54079;44.540;18.784;2023-03-14T09:46:51;17.17;;;15.10;;
55776;SDS011;54079;44.540;18.784;2023-03-14T09:49:32;13.55;;;11.75;;
55776;SDS011;54079;44.540;18.784;2023-03-14T09:52:01;12.65;;;10.57;;
55776;SDS011;54079;44.540;18.784;2023-03-14T09:57:12;2.47;;;2.28;;
55776;SDS011;54079;44.540;18.784;2023-03-14T09:59:44;9.18;;;6.88;;
55776;SDS011;54079;44.540;18.784;2023-03-14T10:02:14;8.23;;;7.35;;
55776;SDS011;54079;44.540;18.784;2023-03-14T10:04:44;13.20;;;10.90;;
55776;SDS011;54079;44.540;18.784;2023-03-14T10:07:12;9.27;;;6.93;;
55776;SDS011;54079;44.540;18.784;2023-03-14T10:09:52;4.30;;;3.50;;
55776;SDS011;54079;44.540;18.784;2023-03-14T10:12:19;3.85;;;2.97;;
55776;SDS011;54079;44.540;18.784;2023-03-14T10:14:47;8.40;;;6.65;;
55776;SDS011;54079;44.540;18.784;2023-03-14T10:17:16;7.93;;;6.17;;
55776;SDS011;54079;44.540;18.784;2023-03-14T10:19:56;8.65;;;7.53;;
55776;SDS011;54079;44.540;18.784;2023-03-14T10:22:24;7.03;;;5.03;;
55776;SDS011;54079;44.540;18.784;2023-03-14T10:24:55;1.48;;;1.35;;
55776;SDS011;54079;44.540;18.784;2023-03-14T10:27:31;5.43;;;4.85;;
55776;SDS011;54079;44.540;18.784;2023-03-14T10:29:59;9.18;;;7.25;;
55776;SDS011;54079;44.540;18.784;2023-03-14T10:32:28;6.38;;;5.78;;
55776;SDS011;54079;44.540;18.784;2023-03-14T10:35:08;7.40;;;4.47;;
55776;SDS011;54079;44.540;18.784;2023-03-14T10:37:56;9.10;;;7.05;;
55776;SDS011;54079;44.540;18.784;2023-03-14T10:40:26;7.03;;;5.68;;
55776;SDS011;54079;44.540;18.784;2023-03-14T10:42:55;6.72;;;5.78;;
55776;SDS011;54079;44.540;18.784;2023-03-14T10:45:30;6.15;;;4.65;;
55776;SDS011;54079;44.540;18.784;2023-03-14T10:48:43;5.13;;;4.22;;
55776;SDS011;54079;44.540;18.784;2023-03-14T10:50:50;3.10;;;2.80;;
55776;SDS011;54079;44.540;18.784;2023-03-14T10:53:18;6.20;;;4.22;;
55776;SDS011;54079;44.540;18.784;2023-03-14T10:55:45;4.03;;;3.22;;
55776;SDS011;54079;44.540;18.784;2023-03-14T10:58:24;5.75;;;5.25;;
55776;SDS011;54079;44.540;18.784;2023-03-14T11:03:51;5.68;;;4.28;;
55776;SDS011;54079;44.540;18.784;2023-03-14T11:06:56;6.57;;;5.32;;
55776;SDS011;54079;44.540;18.784;2023-03-14T11:26:41;3.28;;;2.10;;
55776;SDS011;54079;44.540;18.784;2023-03-14T11:31:54;5.85;;;5.05;;
55776;SDS011;54079;44.540;18.784;2023-03-14T11:36:59;2.63;;;2.42;;
55776;SDS011;54079;44.540;18.784;2023-03-14T11:42:27;3.03;;;2.50;;
55776;SDS011;54079;44.540;18.784;2023-03-14T11:44:54;2.47;;;1.90;;
55776;SDS011;54079;44.540;18.784;2023-03-14T11:49:58;2.83;;;1.92;;
55776;SDS011;54079;44.540;18.784;2023-03-14T11:53:03;2.75;;;2.47;;
55776;SDS011;54079;44.540;18.784;2023-03-14T11:55:35;4.57;;;2.72;;
55776;SDS011;54079;44.540;18.784;2023-03-14T11:58:09;3.30;;;2.85;;
55776;SDS011;54079;44.540;18.784;2023-03-14T12:00:43;2.30;;;1.85;;
55776;SDS011;54079;44.540;18.784;2023-03-14T12:03:26;3.05;;;2.10;;
55776;SDS011;54079;44.540;18.784;2023-03-14T12:06:16;2.85;;;2.22;;
55776;SDS011;54079;44.540;18.784;2023-03-14T12:08:52;2.35;;;2.03;;
55776;SDS011;54079;44.540;18.784;2023-03-14T12:13:58;6.47;;;4.75;;
55776;SDS011;54079;44.540;18.784;2023-03-14T12:18:51;6.28;;;4.25;;
55776;SDS011;54079;44.540;18.784;2023-03-14T12:21:18;7.28;;;5.05;;
55776;SDS011;54079;44.540;18.784;2023-03-14T12:23:54;6.57;;;5.10;;
55776;SDS011;54079;44.540;18.784;2023-03-14T12:26:23;9.10;;;6.57;;
55776;SDS011;54079;44.540;18.784;2023-03-14T12:28:52;2.35;;;1.73;;
55776;SDS011;54079;44.540;18.784;2023-03-14T12:31:41;6.13;;;5.00;;
55776;SDS011;54079;44.540;18.784;2023-03-14T12:51:00;1.52;;;1.23;;
55776;SDS011;54079;44.540;18.784;2023-03-14T12:53:37;7.13;;;5.28;;
55776;SDS011;54079;44.540;18.784;2023-03-14T12:56:26;4.57;;;3.40;;
55776;SDS011;54079;44.540;18.784;2023-03-14T13:02:36;2.08;;;1.90;;
55776;SDS011;54079;44.540;18.784;2023-03-14T13:05:20;2.42;;;1.90;;
55776;SDS011;54079;44.540;18.784;2023-03-14T13:07:35;2.47;;;1.85;;
55776;SDS011;54079;44.540;18.784;2023-03-14T13:12:38;6.57;;;4.57;;
55776;SDS011;54079;44.540;18.784;2023-03-14T13:15:14;3.75;;;2.92;;
55776;SDS011;54079;44.540;18.784;2023-03-14T13:17:43;2.47;;;1.30;;
55776;SDS011;54079;44.540;18.784;2023-03-14T13:20:17;3.95;;;2.17;;
55776;SDS011;54079;44.540;18.784;2023-03-14T13:22:49;2.45;;;1.92;;
55776;SDS011;54079;44.540;18.784;2023-03-14T13:25:15;2.42;;;1.75;;
55776;SDS011;54079;44.540;18.784;2023-03-14T13:27:43;1.77;;;1.23;;
55776;SDS011;54079;44.540;18.784;2023-03-14T13:30:20;2.40;;;1.98;;
55776;SDS011;54079;44.540;18.784;2023-03-14T13:32:49;4.13;;;2.25;;
55776;SDS011;54079;44.540;18.784;2023-03-14T13:35:26;3.78;;;2.33;;
55776;SDS011;54079;44.540;18.784;2023-03-14T13:37:58;2.53;;;1.83;;
55776;SDS011;54079;44.540;18.784;2023-03-14T13:40:33;2.00;;;1.67;;
55776;SDS011;54079;44.540;18.784;2023-03-14T13:43:04;1.35;;;0.80;;
55776;SDS011;54079;44.540;18.784;2023-03-14T13:45:50;4.40;;;3.10;;
55776;SDS011;54079;44.540;18.784;2023-03-14T13:48:19;4.93;;;3.50;;
55776;SDS011;54079;44.540;18.784;2023-03-14T13:50:48;3.85;;;2.83;;
55776;SDS011;54079;44.540;18.784;2023-03-14T13:53:17;1.53;;;0.97;;
55776;SDS011;54079;44.540;18.784;2023-03-14T13:55:43;4.10;;;1.80;;
55776;SDS011;54079;44.540;18.784;2023-03-14T13:58:11;2.40;;;2.05;;
55776;SDS011;54079;44.540;18.784;2023-03-14T14:01:00;1.80;;;1.42;;
55776;SDS011;54079;44.540;18.784;2023-03-14T14:03:36;9.65;;;7.30;;
55776;SDS011;54079;44.540;18.784;2023-03-14T14:06:05;6.25;;;4.78;;
55776;SDS011;54079;44.540;18.784;2023-03-14T14:08:36;4.05;;;2.40;;
55776;SDS011;54079;44.540;18.784;2023-03-14T14:11:06;2.63;;;1.58;;
55776;SDS011;54079;44.540;18.784;2023-03-14T14:13:35;5.38;;;3.90;;
55776;SDS011;54079;44.540;18.784;2023-03-14T14:16:01;3.47;;;3.05;;
55776;SDS011;54079;44.540;18.784;2023-03-14T14:18:28;1.80;;;1.05;;
55776;SDS011;54079;44.540;18.784;2023-03-14T14:20:56;3.13;;;2.67;;
55776;SDS011;54079;44.540;18.784;2023-03-14T14:23:24;2.95;;;2.20;;
55776;SDS011;54079;44.540;18.784;2023-03-14T14:25:54;2.53;;;1.88;;
55776;SDS011;54079;44.540;18.784;2023-03-14T14:31:01;3.28;;;1.45;;
55776;SDS011;54079;44.540;18.784;2023-03-14T14:33:43;5.00;;;3.95;;
55776;SDS011;54079;44.540;18.784;2023-03-14T14:36:15;3.50;;;2.80;;
55776;SDS011;54079;44.540;18.784;2023-03-14T14:38:56;4.97;;;3.85;;
55776;SDS011;54079;44.540;18.784;2023-03-14T14:41:31;3.70;;;2.50;;
55776;SDS011;54079;44.540;18.784;2023-03-14T14:44:00;3.42;;;3.10;;
55776;SDS011;54079;44.540;18.784;2023-03-14T14:46:30;4.00;;;3.60;;
55776;SDS011;54079;44.540;18.784;2023-03-14T14:49:01;5.85;;;3.58;;
55776;SDS011;54079;44.540;18.784;2023-03-14T14:51:32;2.15;;;1.55;;
55776;SDS011;54079;44.540;18.784;2023-03-14T14:54:04;3.80;;;2.22;;
55776;SDS011;54079;44.540;18.784;2023-03-14T14:56:38;2.50;;;1.98;;
55776;SDS011;54079;44.540;18.784;2023-03-14T14:59:04;3.30;;;2.40;;
55776;SDS011;54079;44.540;18.784;2023-03-14T15:01:33;2.10;;;1.90;;
55776;SDS011;54079;44.540;18.784;2023-03-14T15:04:13;3.35;;;2.55;;
55776;SDS011;54079;44.540;18.784;2023-03-14T15:06:44;3.92;;;2.58;;
55776;SDS011;54079;44.540;18.784;2023-03-14T15:09:13;2.22;;;1.95;;
55776;SDS011;54079;44.540;18.784;2023-03-14T15:11:39;2.42;;;1.98;;
55776;SDS011;54079;44.540;18.784;2023-03-14T15:14:05;0.82;;;0.80;;
55776;SDS011;54079;44.540;18.784;2023-03-14T15:16:31;4.25;;;3.42;;
55776;SDS011;54079;44.540;18.784;2023-03-14T15:18:59;3.53;;;3.13;;
55776;SDS011;54079;44.540;18.784;2023-03-14T15:21:27;2.92;;;2.55;;
55776;SDS011;54079;44.540;18.784;2023-03-14T15:23:54;4.40;;;2.50;;
55776;SDS011;54079;44.540;18.784;2023-03-14T15:26:21;2.63;;;2.05;;
55776;SDS011;54079;44.540;18.784;2023-03-14T15:28:49;2.28;;;1.95;;
55776;SDS011;54079;44.540;18.784;2023-03-14T15:31:16;4.07;;;3.28;;
55776;SDS011;54079;44.540;18.784;2023-03-14T15:33:43;3.60;;;2.67;;
55776;SDS011;54079;44.540;18.784;2023-03-14T15:36:23;3.20;;;2.60;;
55776;SDS011;54079;44.540;18.784;2023-03-14T15:38:52;3.92;;;2.75;;
55776;SDS011;54079;44.540;18.784;2023-03-14T15:41:18;2.67;;;2.30;;
55776;SDS011;54079;44.540;18.784;2023-03-14T15:43:45;4.55;;;3.78;;
55776;SDS011;54079;44.540;18.784;2023-03-14T15:46:11;2.53;;;2.03;;
55776;SDS011;54079;44.540;18.784;2023-03-14T15:48:38;1.77;;;1.50;;
55776;SDS011;54079;44.540;18.784;2023-03-14T15:51:04;3.60;;;2.28;;
55776;SDS011;54079;44.540;18.784;2023-03-14T15:53:30;2.45;;;2.03;;